sensor_id;sensor_type;location;lat;lon;timestamp;P1;durP1;ratioP1;P2;durP2;ratioP2
69979;SDS011;57318;56.232;43.944;2023-11-19T00:02:13;15.55;;;6.00;;
69979;SDS011;57318;56.232;43.944;2023-11-19T00:04:39;12.38;;;5.43;;
69979;SDS011;57318;56.232;43.944;2023-11-19T00:07:05;13.45;;;5.38;;
69979;SDS011;57318;56.232;43.944;2023-11-19T00:09:33;10.60;;;5.07;;
69979;SDS011;57318;56.232;43.944;2023-11-19T00:11:59;15.35;;;5.18;;
69979;SDS011;57318;56.232;43.944;2023-11-19T00:14:25;15.10;;;5.20;;
69979;SDS011;57318;56.232;43.944;2023-11-19T00:16:51;15.70;;;5.70;;
69979;SDS011;57318;56.232;43.944;2023-11-19T00:19:19;12.65;;;5.80;;
69979;SDS011;57318;56.232;43.944;2023-11-19T00:21:44;12.90;;;5.70;;
69979;SDS011;57318;56.232;43.944;2023-11-19T00:24:11;12.55;;;5.90;;
69979;SDS011;57318;56.232;43.944;2023-11-19T00:26:38;13.30;;;5.88;;
69979;SDS011;57318;56.232;43.944;2023-11-19T00:29:04;16.52;;;5.45;;
69979;SDS011;57318;56.232;43.944;2023-11-19T00:31:31;16.00;;;5.57;;
69979;SDS011;57318;56.232;43.944;2023-11-19T00:33:57;13.73;;;4.85;;
69979;SDS011;57318;56.232;43.944;2023-11-19T00:36:22;15.73;;;5.00;;
69979;SDS011;57318;56.232;43.944;2023-11-19T00:38:49;9.52;;;4.15;;
69979;SDS011;57318;56.232;43.944;2023-11-19T00:41:15;11.90;;;5.03;;
69979;SDS011;57318;56.232;43.944;2023-11-19T00:43:44;10.50;;;4.63;;
69979;SDS011;57318;56.232;43.944;2023-11-19T00:46:10;13.05;;;5.07;;
69979;SDS011;57318;56.232;43.944;2023-11-19T00:48:39;12.60;;;5.43;;
69979;SDS011;57318;56.232;43.944;2023-11-19T00:53:31;10.10;;;4.22;;
69979;SDS011;57318;56.232;43.944;2023-11-19T00:56:00;10.25;;;4.50;;
69979;SDS011;57318;56.232;43.944;2023-11-19T00:58:25;11.35;;;4.43;;
69979;SDS011;57318;56.232;43.944;2023-11-19T01:00:52;12.25;;;5.00;;
69979;SDS011;57318;56.232;43.944;2023-11-19T01:03:18;15.90;;;5.72;;
69979;SDS011;57318;56.232;43.944;2023-11-19T01:05:44;11.30;;;4.93;;
69979;SDS011;57318;56.232;43.944;2023-11-19T01:08:12;11.35;;;4.85;;
69979;SDS011;57318;56.232;43.944;2023-11-19T01:10:37;13.38;;;5.10;;
69979;SDS011;57318;56.232;43.944;2023-11-19T01:13:03;11.13;;;4.07;;
69979;SDS011;57318;56.232;43.944;2023-11-19T01:15:31;13.55;;;4.70;;
69979;SDS011;57318;56.232;43.944;2023-11-19T01:17:58;12.07;;;5.32;;
69979;SDS011;57318;56.232;43.944;2023-11-19T01:20:24;13.23;;;4.68;;
69979;SDS011;57318;56.232;43.944;2023-11-19T01:22:50;14.32;;;5.00;;
69979;SDS011;57318;56.232;43.944;2023-11-19T01:25:16;9.45;;;4.72;;
69979;SDS011;57318;56.232;43.944;2023-11-19T01:27:42;12.27;;;4.32;;
69979;SDS011;57318;56.232;43.944;2023-11-19T01:30:08;12.70;;;4.10;;
69979;SDS011;57318;56.232;43.944;2023-11-19T01:32:38;8.68;;;4.20;;
69979;SDS011;57318;56.232;43.944;2023-11-19T01:35:05;10.90;;;4.40;;
69979;SDS011;57318;56.232;43.944;2023-11-19T01:37:31;12.52;;;4.25;;
69979;SDS011;57318;56.232;43.944;2023-11-19T01:39:57;10.60;;;4.47;;
69979;SDS011;57318;56.232;43.944;2023-11-19T01:42:23;12.40;;;4.90;;
69979;SDS011;57318;56.232;43.944;2023-11-19T01:45:00;7.38;;;3.38;;
69979;SDS011;57318;56.232;43.944;2023-11-19T01:47:26;6.88;;;4.07;;
69979;SDS011;57318;56.232;43.944;2023-11-19T01:49:55;14.02;;;4.25;;
69979;SDS011;57318;56.232;43.944;2023-11-19T01:52:22;10.52;;;4.20;;
69979;SDS011;57318;56.232;43.944;2023-11-19T01:54:48;15.88;;;4.85;;
69979;SDS011;57318;56.232;43.944;2023-11-19T01:57:15;8.23;;;4.15;;
69979;SDS011;57318;56.232;43.944;2023-11-19T01:59:41;11.40;;;4.75;;
69979;SDS011;57318;56.232;43.944;2023-11-19T02:02:09;8.70;;;4.32;;
69979;SDS011;57318;56.232;43.944;2023-11-19T02:04:35;12.52;;;4.38;;
69979;SDS011;57318;56.232;43.944;2023-11-19T02:07:01;8.10;;;3.97;;
69979;SDS011;57318;56.232;43.944;2023-11-19T02:09:26;10.80;;;5.28;;
69979;SDS011;57318;56.232;43.944;2023-11-19T02:11:53;12.35;;;4.80;;
69979;SDS011;57318;56.232;43.944;2023-11-19T02:16:47;10.18;;;4.20;;
69979;SDS011;57318;56.232;43.944;2023-11-19T02:19:13;12.00;;;5.18;;
69979;SDS011;57318;56.232;43.944;2023-11-19T02:21:58;18.25;;;5.32;;
69979;SDS011;57318;56.232;43.944;2023-11-19T02:24:24;17.05;;;5.25;;
69979;SDS011;57318;56.232;43.944;2023-11-19T02:27:02;10.52;;;4.38;;
69979;SDS011;57318;56.232;43.944;2023-11-19T02:29:31;16.35;;;5.18;;
69979;SDS011;57318;56.232;43.944;2023-11-19T02:31:57;13.27;;;5.20;;
69979;SDS011;57318;56.232;43.944;2023-11-19T02:34:23;15.65;;;4.45;;
69979;SDS011;57318;56.232;43.944;2023-11-19T02:36:48;17.33;;;4.68;;
69979;SDS011;57318;56.232;43.944;2023-11-19T02:41:46;7.63;;;3.83;;
69979;SDS011;57318;56.232;43.944;2023-11-19T02:44:12;7.68;;;3.92;;
69979;SDS011;57318;56.232;43.944;2023-11-19T02:46:38;8.02;;;4.13;;
69979;SDS011;57318;56.232;43.944;2023-11-19T02:49:07;13.07;;;4.97;;
69979;SDS011;57318;56.232;43.944;2023-11-19T02:51:32;10.95;;;4.78;;
69979;SDS011;57318;56.232;43.944;2023-11-19T02:54:00;11.20;;;4.93;;
69979;SDS011;57318;56.232;43.944;2023-11-19T02:56:26;10.27;;;4.28;;
69979;SDS011;57318;56.232;43.944;2023-11-19T02:58:52;11.57;;;4.40;;
69979;SDS011;57318;56.232;43.944;2023-11-19T03:01:24;12.48;;;4.88;;
69979;SDS011;57318;56.232;43.944;2023-11-19T03:03:56;18.80;;;6.30;;
69979;SDS011;57318;56.232;43.944;2023-11-19T03:06:23;14.25;;;4.78;;
69979;SDS011;57318;56.232;43.944;2023-11-19T03:08:49;14.30;;;5.80;;
69979;SDS011;57318;56.232;43.944;2023-11-19T03:11:15;15.30;;;5.20;;
69979;SDS011;57318;56.232;43.944;2023-11-19T03:13:41;15.95;;;5.35;;
69979;SDS011;57318;56.232;43.944;2023-11-19T03:16:06;10.25;;;5.13;;
69979;SDS011;57318;56.232;43.944;2023-11-19T03:18:32;12.82;;;5.90;;
69979;SDS011;57318;56.232;43.944;2023-11-19T03:20:58;12.05;;;5.18;;
69979;SDS011;57318;56.232;43.944;2023-11-19T03:23:24;11.77;;;5.80;;
69979;SDS011;57318;56.232;43.944;2023-11-19T03:25:53;17.08;;;5.63;;
69979;SDS011;57318;56.232;43.944;2023-11-19T03:28:19;11.70;;;5.03;;
69979;SDS011;57318;56.232;43.944;2023-11-19T03:30:45;12.25;;;5.15;;
69979;SDS011;57318;56.232;43.944;2023-11-19T03:33:11;10.88;;;4.45;;
69979;SDS011;57318;56.232;43.944;2023-11-19T03:35:36;16.38;;;5.70;;
69979;SDS011;57318;56.232;43.944;2023-11-19T03:38:02;13.88;;;4.97;;
69979;SDS011;57318;56.232;43.944;2023-11-19T03:40:28;12.95;;;5.18;;
69979;SDS011;57318;56.232;43.944;2023-11-19T03:42:55;10.95;;;5.15;;
69979;SDS011;57318;56.232;43.944;2023-11-19T03:45:22;16.05;;;5.50;;
69979;SDS011;57318;56.232;43.944;2023-11-19T03:47:48;12.23;;;4.60;;
69979;SDS011;57318;56.232;43.944;2023-11-19T03:50:15;11.80;;;5.13;;
69979;SDS011;57318;56.232;43.944;2023-11-19T03:52:41;11.75;;;5.40;;
69979;SDS011;57318;56.232;43.944;2023-11-19T03:55:07;13.43;;;5.00;;
69979;SDS011;57318;56.232;43.944;2023-11-19T03:57:34;11.30;;;4.47;;
69979;SDS011;57318;56.232;43.944;2023-11-19T04:02:32;9.98;;;4.40;;
69979;SDS011;57318;56.232;43.944;2023-11-19T04:04:57;10.40;;;5.00;;
69979;SDS011;57318;56.232;43.944;2023-11-19T04:07:23;15.15;;;5.45;;
69979;SDS011;57318;56.232;43.944;2023-11-19T04:09:48;13.17;;;5.40;;
69979;SDS011;57318;56.232;43.944;2023-11-19T04:12:14;13.03;;;5.50;;
69979;SDS011;57318;56.232;43.944;2023-11-19T04:14:40;13.40;;;5.72;;
69979;SDS011;57318;56.232;43.944;2023-11-19T04:17:06;12.07;;;4.27;;
69979;SDS011;57318;56.232;43.944;2023-11-19T04:19:31;7.00;;;3.37;;
69979;SDS011;57318;56.232;43.944;2023-11-19T04:21:58;19.27;;;5.53;;
69979;SDS011;57318;56.232;43.944;2023-11-19T04:24:24;13.68;;;4.78;;
69979;SDS011;57318;56.232;43.944;2023-11-19T04:26:49;15.55;;;5.25;;
69979;SDS011;57318;56.232;43.944;2023-11-19T04:29:15;12.20;;;5.10;;
69979;SDS011;57318;56.232;43.944;2023-11-19T04:31:42;20.05;;;5.88;;
69979;SDS011;57318;56.232;43.944;2023-11-19T04:34:09;19.98;;;6.85;;
69979;SDS011;57318;56.232;43.944;2023-11-19T04:36:36;12.85;;;4.97;;
69979;SDS011;57318;56.232;43.944;2023-11-19T04:39:02;15.23;;;6.32;;
69979;SDS011;57318;56.232;43.944;2023-11-19T04:41:45;17.48;;;6.35;;
69979;SDS011;57318;56.232;43.944;2023-11-19T04:44:15;20.33;;;7.45;;
69979;SDS011;57318;56.232;43.944;2023-11-19T04:46:42;13.70;;;5.93;;
69979;SDS011;57318;56.232;43.944;2023-11-19T04:49:09;16.77;;;6.25;;
69979;SDS011;57318;56.232;43.944;2023-11-19T04:51:44;15.10;;;6.10;;
69979;SDS011;57318;56.232;43.944;2023-11-19T04:54:12;19.02;;;6.65;;
69979;SDS011;57318;56.232;43.944;2023-11-19T04:56:38;12.70;;;5.85;;
69979;SDS011;57318;56.232;43.944;2023-11-19T05:01:31;15.93;;;6.63;;
69979;SDS011;57318;56.232;43.944;2023-11-19T05:03:57;19.27;;;6.85;;
69979;SDS011;57318;56.232;43.944;2023-11-19T05:06:26;17.60;;;6.93;;
69979;SDS011;57318;56.232;43.944;2023-11-19T05:08:53;14.45;;;6.13;;
69979;SDS011;57318;56.232;43.944;2023-11-19T05:11:19;20.17;;;7.10;;
69979;SDS011;57318;56.232;43.944;2023-11-19T05:13:45;17.35;;;7.20;;
69979;SDS011;57318;56.232;43.944;2023-11-19T05:16:11;16.45;;;5.78;;
69979;SDS011;57318;56.232;43.944;2023-11-19T05:18:39;13.43;;;6.68;;
69979;SDS011;57318;56.232;43.944;2023-11-19T05:21:05;26.77;;;10.70;;
69979;SDS011;57318;56.232;43.944;2023-11-19T05:23:32;17.48;;;6.22;;
69979;SDS011;57318;56.232;43.944;2023-11-19T05:25:59;14.73;;;6.47;;
69979;SDS011;57318;56.232;43.944;2023-11-19T05:28:26;17.52;;;6.85;;
69979;SDS011;57318;56.232;43.944;2023-11-19T05:30:52;18.67;;;7.13;;
69979;SDS011;57318;56.232;43.944;2023-11-19T05:33:18;15.57;;;6.47;;
69979;SDS011;57318;56.232;43.944;2023-11-19T05:35:43;16.52;;;6.28;;
69979;SDS011;57318;56.232;43.944;2023-11-19T05:38:09;17.43;;;6.33;;
69979;SDS011;57318;56.232;43.944;2023-11-19T05:40:35;14.73;;;6.10;;
69979;SDS011;57318;56.232;43.944;2023-11-19T05:43:01;14.20;;;6.43;;
69979;SDS011;57318;56.232;43.944;2023-11-19T05:45:27;16.85;;;6.45;;
69979;SDS011;57318;56.232;43.944;2023-11-19T05:47:53;20.70;;;7.78;;
69979;SDS011;57318;56.232;43.944;2023-11-19T05:50:18;15.70;;;6.53;;
69979;SDS011;57318;56.232;43.944;2023-11-19T05:52:44;12.13;;;5.95;;
69979;SDS011;57318;56.232;43.944;2023-11-19T05:55:10;16.25;;;6.57;;
69979;SDS011;57318;56.232;43.944;2023-11-19T05:57:38;14.07;;;5.60;;
69979;SDS011;57318;56.232;43.944;2023-11-19T06:00:05;10.57;;;5.28;;
69979;SDS011;57318;56.232;43.944;2023-11-19T06:02:34;9.18;;;4.78;;
69979;SDS011;57318;56.232;43.944;2023-11-19T06:05:00;12.15;;;5.82;;
69979;SDS011;57318;56.232;43.944;2023-11-19T06:07:27;6.75;;;4.05;;
69979;SDS011;57318;56.232;43.944;2023-11-19T06:12:18;9.73;;;4.03;;
69979;SDS011;57318;56.232;43.944;2023-11-19T06:14:44;9.95;;;4.50;;
69979;SDS011;57318;56.232;43.944;2023-11-19T06:17:10;7.30;;;3.85;;
69979;SDS011;57318;56.232;43.944;2023-11-19T06:19:36;9.68;;;4.35;;
69979;SDS011;57318;56.232;43.944;2023-11-19T06:22:05;10.50;;;4.50;;
69979;SDS011;57318;56.232;43.944;2023-11-19T06:24:31;9.30;;;4.22;;
69979;SDS011;57318;56.232;43.944;2023-11-19T06:26:57;11.00;;;4.90;;
69979;SDS011;57318;56.232;43.944;2023-11-19T06:29:23;14.43;;;5.32;;
69979;SDS011;57318;56.232;43.944;2023-11-19T06:31:50;10.98;;;4.85;;
69979;SDS011;57318;56.232;43.944;2023-11-19T06:34:15;9.02;;;4.82;;
69979;SDS011;57318;56.232;43.944;2023-11-19T06:36:41;13.67;;;4.80;;
69979;SDS011;57318;56.232;43.944;2023-11-19T06:39:09;11.95;;;4.82;;
69979;SDS011;57318;56.232;43.944;2023-11-19T06:41:36;13.80;;;4.10;;
69979;SDS011;57318;56.232;43.944;2023-11-19T06:44:05;12.38;;;4.53;;
69979;SDS011;57318;56.232;43.944;2023-11-19T06:46:31;8.88;;;3.58;;
69979;SDS011;57318;56.232;43.944;2023-11-19T06:48:57;8.43;;;3.73;;
69979;SDS011;57318;56.232;43.944;2023-11-19T06:51:22;8.88;;;4.07;;
69979;SDS011;57318;56.232;43.944;2023-11-19T06:53:49;8.30;;;3.78;;
69979;SDS011;57318;56.232;43.944;2023-11-19T06:56:19;8.50;;;3.72;;
69979;SDS011;57318;56.232;43.944;2023-11-19T06:58:49;8.90;;;2.70;;
69979;SDS011;57318;56.232;43.944;2023-11-19T07:01:16;9.45;;;3.78;;
69979;SDS011;57318;56.232;43.944;2023-11-19T07:03:46;7.50;;;2.67;;
69979;SDS011;57318;56.232;43.944;2023-11-19T07:06:12;10.13;;;3.35;;
69979;SDS011;57318;56.232;43.944;2023-11-19T07:08:41;7.65;;;2.80;;
69979;SDS011;57318;56.232;43.944;2023-11-19T07:11:07;7.40;;;3.83;;
69979;SDS011;57318;56.232;43.944;2023-11-19T07:13:35;4.63;;;2.63;;
69979;SDS011;57318;56.232;43.944;2023-11-19T07:16:01;6.80;;;3.42;;
69979;SDS011;57318;56.232;43.944;2023-11-19T07:18:27;7.63;;;3.63;;
69979;SDS011;57318;56.232;43.944;2023-11-19T07:20:52;9.23;;;4.03;;
69979;SDS011;57318;56.232;43.944;2023-11-19T07:23:18;7.93;;;3.58;;
69979;SDS011;57318;56.232;43.944;2023-11-19T07:25:44;6.07;;;3.13;;
69979;SDS011;57318;56.232;43.944;2023-11-19T07:28:12;9.75;;;3.47;;
69979;SDS011;57318;56.232;43.944;2023-11-19T07:30:39;9.70;;;3.67;;
69979;SDS011;57318;56.232;43.944;2023-11-19T07:33:05;8.13;;;3.53;;
69979;SDS011;57318;56.232;43.944;2023-11-19T07:35:31;5.87;;;3.20;;
69979;SDS011;57318;56.232;43.944;2023-11-19T07:40:23;7.43;;;3.40;;
69979;SDS011;57318;56.232;43.944;2023-11-19T07:42:49;7.65;;;4.07;;
69979;SDS011;57318;56.232;43.944;2023-11-19T07:45:15;11.13;;;4.13;;
69979;SDS011;57318;56.232;43.944;2023-11-19T07:47:42;9.88;;;3.97;;
69979;SDS011;57318;56.232;43.944;2023-11-19T07:50:10;9.35;;;3.78;;
69979;SDS011;57318;56.232;43.944;2023-11-19T07:52:37;10.38;;;3.97;;
69979;SDS011;57318;56.232;43.944;2023-11-19T07:55:02;8.23;;;3.80;;
69979;SDS011;57318;56.232;43.944;2023-11-19T07:57:29;12.20;;;4.28;;
69979;SDS011;57318;56.232;43.944;2023-11-19T07:59:56;12.60;;;3.90;;
69979;SDS011;57318;56.232;43.944;2023-11-19T08:02:22;7.97;;;3.75;;
69979;SDS011;57318;56.232;43.944;2023-11-19T08:04:49;9.70;;;3.58;;
69979;SDS011;57318;56.232;43.944;2023-11-19T08:07:17;7.97;;;3.95;;
69979;SDS011;57318;56.232;43.944;2023-11-19T08:09:44;8.07;;;3.80;;
69979;SDS011;57318;56.232;43.944;2023-11-19T08:12:10;9.63;;;3.92;;
69979;SDS011;57318;56.232;43.944;2023-11-19T08:14:36;9.23;;;3.78;;
69979;SDS011;57318;56.232;43.944;2023-11-19T08:17:05;8.45;;;3.78;;
69979;SDS011;57318;56.232;43.944;2023-11-19T08:19:30;7.83;;;3.47;;
69979;SDS011;57318;56.232;43.944;2023-11-19T08:21:56;9.47;;;4.07;;
69979;SDS011;57318;56.232;43.944;2023-11-19T08:24:22;12.30;;;4.17;;
69979;SDS011;57318;56.232;43.944;2023-11-19T08:26:47;6.45;;;3.33;;
69979;SDS011;57318;56.232;43.944;2023-11-19T08:29:14;18.67;;;4.72;;
69979;SDS011;57318;56.232;43.944;2023-11-19T08:31:40;8.83;;;4.63;;
69979;SDS011;57318;56.232;43.944;2023-11-19T08:34:06;8.90;;;5.00;;
69979;SDS011;57318;56.232;43.944;2023-11-19T08:36:34;9.43;;;4.10;;
69979;SDS011;57318;56.232;43.944;2023-11-19T08:39:00;9.32;;;4.00;;
69979;SDS011;57318;56.232;43.944;2023-11-19T08:41:26;9.30;;;3.83;;
69979;SDS011;57318;56.232;43.944;2023-11-19T08:43:52;9.93;;;4.50;;
69979;SDS011;57318;56.232;43.944;2023-11-19T08:46:18;12.13;;;5.00;;
69979;SDS011;57318;56.232;43.944;2023-11-19T08:48:44;9.75;;;4.30;;
69979;SDS011;57318;56.232;43.944;2023-11-19T08:51:10;12.68;;;4.72;;
69979;SDS011;57318;56.232;43.944;2023-11-19T08:53:35;10.23;;;4.87;;
69979;SDS011;57318;56.232;43.944;2023-11-19T08:56:01;9.63;;;4.73;;
69979;SDS011;57318;56.232;43.944;2023-11-19T08:58:28;11.63;;;5.28;;
69979;SDS011;57318;56.232;43.944;2023-11-19T09:00:54;13.95;;;5.10;;
69979;SDS011;57318;56.232;43.944;2023-11-19T09:03:20;7.10;;;4.47;;
69979;SDS011;57318;56.232;43.944;2023-11-19T09:05:46;8.80;;;3.97;;
69979;SDS011;57318;56.232;43.944;2023-11-19T09:08:11;6.70;;;4.00;;
69979;SDS011;57318;56.232;43.944;2023-11-19T09:10:37;9.03;;;3.50;;
69979;SDS011;57318;56.232;43.944;2023-11-19T09:13:03;8.70;;;4.07;;
69979;SDS011;57318;56.232;43.944;2023-11-19T09:15:29;6.35;;;3.22;;
69979;SDS011;57318;56.232;43.944;2023-11-19T09:17:55;10.33;;;3.93;;
69979;SDS011;57318;56.232;43.944;2023-11-19T09:20:21;10.10;;;3.70;;
69979;SDS011;57318;56.232;43.944;2023-11-19T09:22:47;6.75;;;3.45;;
69979;SDS011;57318;56.232;43.944;2023-11-19T09:25:13;16.65;;;4.68;;
69979;SDS011;57318;56.232;43.944;2023-11-19T09:27:43;9.32;;;4.28;;
69979;SDS011;57318;56.232;43.944;2023-11-19T09:30:09;6.85;;;3.55;;
69979;SDS011;57318;56.232;43.944;2023-11-19T09:32:35;8.52;;;4.38;;
69979;SDS011;57318;56.232;43.944;2023-11-19T09:35:03;9.13;;;4.72;;
69979;SDS011;57318;56.232;43.944;2023-11-19T09:39:54;6.68;;;4.00;;
69979;SDS011;57318;56.232;43.944;2023-11-19T09:42:20;8.73;;;3.87;;
69979;SDS011;57318;56.232;43.944;2023-11-19T09:44:46;10.23;;;4.47;;
69979;SDS011;57318;56.232;43.944;2023-11-19T09:47:13;9.60;;;4.65;;
69979;SDS011;57318;56.232;43.944;2023-11-19T09:52:05;8.13;;;4.18;;
69979;SDS011;57318;56.232;43.944;2023-11-19T09:54:31;6.00;;;3.50;;
69979;SDS011;57318;56.232;43.944;2023-11-19T09:56:57;8.15;;;3.70;;
69979;SDS011;57318;56.232;43.944;2023-11-19T09:59:28;13.18;;;4.68;;
69979;SDS011;57318;56.232;43.944;2023-11-19T10:01:55;10.48;;;4.95;;
69979;SDS011;57318;56.232;43.944;2023-11-19T10:04:22;13.60;;;4.47;;
69979;SDS011;57318;56.232;43.944;2023-11-19T10:06:52;14.55;;;4.55;;
69979;SDS011;57318;56.232;43.944;2023-11-19T10:09:17;7.60;;;3.88;;
69979;SDS011;57318;56.232;43.944;2023-11-19T10:11:44;9.35;;;3.70;;
69979;SDS011;57318;56.232;43.944;2023-11-19T10:14:10;9.27;;;3.80;;
69979;SDS011;57318;56.232;43.944;2023-11-19T10:16:35;7.43;;;4.10;;
69979;SDS011;57318;56.232;43.944;2023-11-19T10:19:01;13.33;;;4.20;;
69979;SDS011;57318;56.232;43.944;2023-11-19T10:21:27;10.05;;;4.45;;
69979;SDS011;57318;56.232;43.944;2023-11-19T10:26:22;9.13;;;4.35;;
69979;SDS011;57318;56.232;43.944;2023-11-19T10:28:48;9.32;;;4.38;;
69979;SDS011;57318;56.232;43.944;2023-11-19T10:31:14;23.58;;;5.32;;
69979;SDS011;57318;56.232;43.944;2023-11-19T10:33:41;11.02;;;4.30;;
69979;SDS011;57318;56.232;43.944;2023-11-19T10:36:07;13.43;;;4.47;;
69979;SDS011;57318;56.232;43.944;2023-11-19T10:38:33;12.50;;;4.88;;
69979;SDS011;57318;56.232;43.944;2023-11-19T10:40:59;15.95;;;4.95;;
69979;SDS011;57318;56.232;43.944;2023-11-19T10:43:25;11.85;;;4.15;;
69979;SDS011;57318;56.232;43.944;2023-11-19T10:45:51;8.75;;;4.30;;
69979;SDS011;57318;56.232;43.944;2023-11-19T10:48:17;12.05;;;4.68;;
69979;SDS011;57318;56.232;43.944;2023-11-19T10:50:44;13.40;;;4.70;;
69979;SDS011;57318;56.232;43.944;2023-11-19T10:53:12;10.63;;;4.30;;
69979;SDS011;57318;56.232;43.944;2023-11-19T10:55:38;8.57;;;4.10;;
69979;SDS011;57318;56.232;43.944;2023-11-19T10:58:05;10.55;;;4.80;;
69979;SDS011;57318;56.232;43.944;2023-11-19T11:00:37;11.18;;;4.70;;
69979;SDS011;57318;56.232;43.944;2023-11-19T11:03:15;9.77;;;4.30;;
69979;SDS011;57318;56.232;43.944;2023-11-19T11:05:43;13.77;;;4.97;;
69979;SDS011;57318;56.232;43.944;2023-11-19T11:08:14;13.48;;;4.72;;
69979;SDS011;57318;56.232;43.944;2023-11-19T11:10:42;14.35;;;5.57;;
69979;SDS011;57318;56.232;43.944;2023-11-19T11:13:09;13.13;;;5.32;;
69979;SDS011;57318;56.232;43.944;2023-11-19T11:15:37;13.13;;;4.72;;
69979;SDS011;57318;56.232;43.944;2023-11-19T11:18:03;11.38;;;5.15;;
69979;SDS011;57318;56.232;43.944;2023-11-19T11:20:33;10.63;;;5.20;;
69979;SDS011;57318;56.232;43.944;2023-11-19T11:28:41;14.93;;;5.18;;
69979;SDS011;57318;56.232;43.944;2023-11-19T11:34:25;10.43;;;4.38;;
69979;SDS011;57318;56.232;43.944;2023-11-19T11:37:14;12.55;;;3.85;;
69979;SDS011;57318;56.232;43.944;2023-11-19T11:39:49;11.50;;;5.18;;
69979;SDS011;57318;56.232;43.944;2023-11-19T11:45:08;11.23;;;4.07;;
69979;SDS011;57318;56.232;43.944;2023-11-19T11:50:17;7.43;;;3.67;;
69979;SDS011;57318;56.232;43.944;2023-11-19T11:57:59;13.05;;;4.47;;
69979;SDS011;57318;56.232;43.944;2023-11-19T12:02:55;8.63;;;3.95;;
69979;SDS011;57318;56.232;43.944;2023-11-19T12:05:21;8.02;;;4.20;;
69979;SDS011;57318;56.232;43.944;2023-11-19T12:07:57;10.43;;;4.30;;
69979;SDS011;57318;56.232;43.944;2023-11-19T12:10:26;13.52;;;4.07;;
69979;SDS011;57318;56.232;43.944;2023-11-19T12:13:01;10.93;;;4.45;;
69979;SDS011;57318;56.232;43.944;2023-11-19T12:15:30;9.77;;;3.95;;
69979;SDS011;57318;56.232;43.944;2023-11-19T12:17:55;10.07;;;4.00;;
69979;SDS011;57318;56.232;43.944;2023-11-19T12:20:22;7.73;;;3.90;;
69979;SDS011;57318;56.232;43.944;2023-11-19T12:22:49;7.88;;;3.72;;
69979;SDS011;57318;56.232;43.944;2023-11-19T12:30:10;7.22;;;3.35;;
69979;SDS011;57318;56.232;43.944;2023-11-19T12:32:40;10.65;;;4.07;;
69979;SDS011;57318;56.232;43.944;2023-11-19T12:35:11;10.10;;;4.30;;
69979;SDS011;57318;56.232;43.944;2023-11-19T12:40:13;10.77;;;4.63;;
69979;SDS011;57318;56.232;43.944;2023-11-19T12:42:41;7.80;;;3.90;;
69979;SDS011;57318;56.232;43.944;2023-11-19T12:45:07;8.00;;;3.60;;
69979;SDS011;57318;56.232;43.944;2023-11-19T12:47:36;8.13;;;3.42;;
69979;SDS011;57318;56.232;43.944;2023-11-19T12:50:02;10.60;;;4.35;;
69979;SDS011;57318;56.232;43.944;2023-11-19T12:52:29;9.57;;;4.43;;
69979;SDS011;57318;56.232;43.944;2023-11-19T12:54:55;11.55;;;4.28;;
69979;SDS011;57318;56.232;43.944;2023-11-19T12:57:35;7.00;;;4.20;;
69979;SDS011;57318;56.232;43.944;2023-11-19T13:00:06;11.93;;;4.30;;
69979;SDS011;57318;56.232;43.944;2023-11-19T13:02:45;10.75;;;4.88;;
69979;SDS011;57318;56.232;43.944;2023-11-19T13:07:59;11.27;;;4.10;;
69979;SDS011;57318;56.232;43.944;2023-11-19T13:10:31;14.90;;;3.75;;
69979;SDS011;57318;56.232;43.944;2023-11-19T13:15:30;7.30;;;3.85;;
69979;SDS011;57318;56.232;43.944;2023-11-19T13:17:58;7.30;;;3.80;;
69979;SDS011;57318;56.232;43.944;2023-11-19T13:20:23;9.13;;;4.22;;
69979;SDS011;57318;56.232;43.944;2023-11-19T13:25:25;16.15;;;4.35;;
69979;SDS011;57318;56.232;43.944;2023-11-19T13:27:52;7.88;;;3.90;;
69979;SDS011;57318;56.232;43.944;2023-11-19T13:30:18;8.43;;;3.90;;
69979;SDS011;57318;56.232;43.944;2023-11-19T13:32:44;10.53;;;4.77;;
69979;SDS011;57318;56.232;43.944;2023-11-19T13:35:11;16.65;;;4.50;;
69979;SDS011;57318;56.232;43.944;2023-11-19T13:37:38;9.82;;;4.47;;
69979;SDS011;57318;56.232;43.944;2023-11-19T13:40:05;11.65;;;3.90;;
69979;SDS011;57318;56.232;43.944;2023-11-19T13:42:32;17.52;;;4.30;;
69979;SDS011;57318;56.232;43.944;2023-11-19T13:44:58;9.53;;;4.27;;
69979;SDS011;57318;56.232;43.944;2023-11-19T13:47:23;7.83;;;3.87;;
69979;SDS011;57318;56.232;43.944;2023-11-19T13:49:49;8.80;;;3.87;;
69979;SDS011;57318;56.232;43.944;2023-11-19T13:52:15;7.97;;;3.90;;
69979;SDS011;57318;56.232;43.944;2023-11-19T13:54:41;9.48;;;3.63;;
69979;SDS011;57318;56.232;43.944;2023-11-19T13:57:06;7.30;;;3.90;;
69979;SDS011;57318;56.232;43.944;2023-11-19T13:59:32;6.40;;;3.30;;
69979;SDS011;57318;56.232;43.944;2023-11-19T14:01:58;8.10;;;3.50;;
69979;SDS011;57318;56.232;43.944;2023-11-19T14:04:24;8.10;;;3.17;;
69979;SDS011;57318;56.232;43.944;2023-11-19T14:06:50;9.60;;;3.47;;
69979;SDS011;57318;56.232;43.944;2023-11-19T14:09:16;8.35;;;3.80;;
69979;SDS011;57318;56.232;43.944;2023-11-19T14:11:42;8.88;;;3.83;;
69979;SDS011;57318;56.232;43.944;2023-11-19T14:14:08;9.43;;;3.67;;
69979;SDS011;57318;56.232;43.944;2023-11-19T14:16:34;8.70;;;3.30;;
69979;SDS011;57318;56.232;43.944;2023-11-19T14:19:00;6.90;;;3.20;;
69979;SDS011;57318;56.232;43.944;2023-11-19T14:21:26;5.93;;;3.13;;
69979;SDS011;57318;56.232;43.944;2023-11-19T14:23:52;14.37;;;3.97;;
69979;SDS011;57318;56.232;43.944;2023-11-19T14:26:18;7.50;;;3.95;;
69979;SDS011;57318;56.232;43.944;2023-11-19T14:28:44;9.85;;;4.18;;
69979;SDS011;57318;56.232;43.944;2023-11-19T14:31:09;7.75;;;3.70;;
69979;SDS011;57318;56.232;43.944;2023-11-19T14:33:35;11.57;;;4.00;;
69979;SDS011;57318;56.232;43.944;2023-11-19T14:36:03;8.82;;;4.20;;
69979;SDS011;57318;56.232;43.944;2023-11-19T14:38:29;10.27;;;4.18;;
69979;SDS011;57318;56.232;43.944;2023-11-19T14:40:55;9.10;;;3.63;;
69979;SDS011;57318;56.232;43.944;2023-11-19T14:43:21;8.53;;;4.00;;
69979;SDS011;57318;56.232;43.944;2023-11-19T14:45:46;10.27;;;3.33;;
69979;SDS011;57318;56.232;43.944;2023-11-19T14:48:12;5.60;;;3.00;;
69979;SDS011;57318;56.232;43.944;2023-11-19T14:50:38;8.02;;;3.60;;
69979;SDS011;57318;56.232;43.944;2023-11-19T14:53:04;6.27;;;3.60;;
69979;SDS011;57318;56.232;43.944;2023-11-19T14:55:29;7.70;;;3.60;;
69979;SDS011;57318;56.232;43.944;2023-11-19T14:57:56;11.52;;;3.45;;
69979;SDS011;57318;56.232;43.944;2023-11-19T15:00:22;7.50;;;3.50;;
69979;SDS011;57318;56.232;43.944;2023-11-19T15:02:47;7.72;;;3.65;;
69979;SDS011;57318;56.232;43.944;2023-11-19T15:05:13;8.82;;;3.67;;
69979;SDS011;57318;56.232;43.944;2023-11-19T15:07:39;7.80;;;3.13;;
69979;SDS011;57318;56.232;43.944;2023-11-19T15:10:05;7.33;;;3.67;;
69979;SDS011;57318;56.232;43.944;2023-11-19T15:12:35;13.88;;;4.10;;
69979;SDS011;57318;56.232;43.944;2023-11-19T15:15:07;9.48;;;4.18;;
69979;SDS011;57318;56.232;43.944;2023-11-19T15:17:39;13.88;;;4.68;;
69979;SDS011;57318;56.232;43.944;2023-11-19T15:20:05;12.33;;;4.20;;
69979;SDS011;57318;56.232;43.944;2023-11-19T15:22:31;11.02;;;4.22;;
69979;SDS011;57318;56.232;43.944;2023-11-19T15:24:57;9.20;;;4.07;;
69979;SDS011;57318;56.232;43.944;2023-11-19T15:27:22;11.32;;;4.35;;